This is the latest recevied weather packets stored in our database for station/object SR7U-1. If no packets are shown the sender has not sent any weather packets the latest 1 day(s).
| Time | Temp. | Humidity | Pressure | Rain* | Wind** | Luminosity | Snow |
|---|---|---|---|---|---|---|---|
| 1778072195 | 23.89° C | 39% | 1006.4 hPa | - | - | - | - |
| 1778070640 | 23.33° C | 40% | 1006.5 hPa | - | - | - | - |
| 1778069750 | 22.78° C | 42% | 1006.4 hPa | - | - | - | - |
| 1778066545 | 22.22° C | 46% | 1006.6 hPa | - | - | - | - |
| 1778065810 | 22.22° C | 46% | 1006.6 hPa | - | - | - | - |
| 1778064925 | 22.22° C | 45% | 1006.6 hPa | - | - | - | - |
| 1778063300 | 21.67° C | 49% | 1006.6 hPa | - | - | - | - |
| 1778062415 | 21.67° C | 47% | 1006.6 hPa | - | - | - | - |
| 1778060785 | 21.11° C | 49% | 1006.4 hPa | - | - | - | - |
| 1778059910 | 21.11° C | 50% | 1006.5 hPa | - | - | - | - |
| 1778059150 | 20.56° C | 52% | 1006.5 hPa | - | - | - | - |
| 1778058375 | 20.56° C | 50% | 1006.4 hPa | - | - | - | - |
| 1778057550 | 20° C | 53% | 1006.3 hPa | - | - | - | - |
| 1778056762 | 19.44° C | 52% | 1006.3 hPa | - | - | - | - |
| 1778055915 | 20° C | 50% | 1006.2 hPa | - | - | - | - |
| 1778055058 | 20.56° C | 48% | 1006.1 hPa | - | - | - | - |
| 1778054315 | 20° C | 49% | 1006 hPa | - | - | - | - |
| 1778053528 | 20° C | 48% | 1005.9 hPa | - | - | - | - |
| 1778051945 | 20° C | 47% | 1005.9 hPa | - | - | - | - |
| 1778051170 | 18.89° C | 50% | 1005.9 hPa | - | - | - | - |
| 1778049585 | 18.89° C | 50% | 1005.9 hPa | - | - | - | - |
| 1778048810 | 17.78° C | 51% | 1005.9 hPa | - | - | - | - |
| 1778048093 | 17.78° C | 50% | 1005.9 hPa | - | - | - | - |
| 1778046335 | 17.78° C | 45% | 1005.9 hPa | - | - | - | - |
| 1778045615 | 17.78° C | 47% | 1006 hPa | - | - | - | - |
* Rain since midnight (hover to see other rain measurements)
** Current wind speed in m/s (hover to see current wind gust speed)